Time;durP1;ratioP1;P1;durP2;ratioP2;P2;SDS_P1;SDS_P2;PMS_P1;PMS_P2;Temp;Humidity;BMP_temperature;BMP_pressure;BME280_temperature;BME280_humidity;BME280_pressure;Samples;Min_cycle;Max_cycle;Signal;HPM_P1;HPM_P2
2022/07/30 00:00:34;;;;;;;7.20;2.08;;;;;;;-148.56;100.00;61375.16;4962495;28;20644;-28
2022/07/30 00:02:59;;;;;;;3.97;2.03;;;;;;;-148.56;100.00;61375.16;4959406;28;20433;-26
2022/07/30 00:05:25;;;;;;;9.20;1.90;;;;;;;-148.56;100.00;61375.16;4961204;28;20117;-26
2022/07/30 00:07:50;;;;;;;6.25;2.10;;;;;;;-148.56;100.00;61375.16;4960252;28;20178;-32
2022/07/30 00:10:16;;;;;;;5.60;1.90;;;;;;;-148.56;100.00;61375.16;4962447;28;20034;-26
2022/07/30 00:12:41;;;;;;;4.53;2.15;;;;;;;-148.56;100.00;61375.16;4963466;28;20088;-26
2022/07/30 00:15:07;;;;;;;4.13;1.70;;;;;;;-148.56;100.00;61375.16;4960104;28;20096;-30
2022/07/30 00:17:32;;;;;;;7.55;2.00;;;;;;;-148.56;100.00;61375.16;4969130;28;20056;-27
2022/07/30 00:19:58;;;;;;;3.08;1.70;;;;;;;-148.56;100.00;61375.16;4959859;28;20045;-31
2022/07/30 00:22:23;;;;;;;3.45;2.00;;;;;;;-148.56;100.00;61375.16;4955886;28;20548;-29
2022/07/30 00:24:49;;;;;;;7.57;1.77;;;;;;;-148.56;100.00;61375.16;4961423;28;20723;-26
2022/07/30 00:27:14;;;;;;;4.85;1.90;;;;;;;-148.56;100.00;61375.16;4959601;28;21774;-29
2022/07/30 00:29:39;;;;;;;5.22;2.00;;;;;;;-148.56;100.00;61375.16;4960758;28;20042;-27
2022/07/30 00:32:05;;;;;;;3.55;1.65;;;;;;;-148.56;100.00;61375.16;4961508;28;20123;-25
2022/07/30 00:34:31;;;;;;;6.07;1.90;;;;;;;-148.56;100.00;61375.16;4959688;28;21874;-29
2022/07/30 00:36:56;;;;;;;3.10;1.77;;;;;;;-148.56;100.00;61375.16;4963485;28;20124;-27
2022/07/30 00:39:21;;;;;;;5.22;1.85;;;;;;;-148.56;100.00;61375.16;4962153;28;20037;-24
2022/07/30 00:42:02;;;;;;;4.93;1.83;;;;;;;-148.56;100.00;61375.16;4960352;28;20026;-28
2022/07/30 00:44:27;;;;;;;4.15;1.80;;;;;;;-148.56;100.00;61375.16;4963324;28;20371;-26
2022/07/30 00:46:53;;;;;;;3.45;1.95;;;;;;;-148.56;100.00;61375.16;4965397;28;20547;-29
2022/07/30 00:49:18;;;;;;;2.80;1.60;;;;;;;-148.56;100.00;61375.16;4964884;28;20044;-28
2022/07/30 00:51:44;;;;;;;4.55;1.85;;;;;;;-148.56;100.00;61375.16;4961656;28;20294;-27
2022/07/30 00:54:09;;;;;;;6.70;1.75;;;;;;;-148.56;100.00;61375.16;4960823;28;20030;-28
2022/07/30 00:56:34;;;;;;;5.10;1.83;;;;;;;-148.56;100.00;61375.16;4965027;28;20034;-26
2022/07/30 00:59:00;;;;;;;3.33;1.73;;;;;;;-148.56;100.00;61375.16;4958513;28;20057;-27
2022/07/30 01:01:25;;;;;;;2.88;1.55;;;;;;;-148.56;100.00;61375.16;4961820;28;20084;-30
2022/07/30 01:03:51;;;;;;;4.82;1.75;;;;;;;-148.56;100.00;61375.16;4958279;28;20092;-29
2022/07/30 01:06:16;;;;;;;4.30;1.70;;;;;;;-148.56;100.00;61375.16;4967574;28;20542;-29
2022/07/30 01:08:44;;;;;;;5.05;2.08;;;;;;;-148.56;100.00;61375.16;4962794;28;20037;-29
2022/07/30 01:11:10;;;;;;;3.60;1.80;;;;;;;-148.56;100.00;61375.16;4963582;28;20022;-30
2022/07/30 01:13:35;;;;;;;3.63;1.80;;;;;;;-148.56;100.00;61375.16;4993460;28;20068;-26
2022/07/30 01:16:00;;;;;;;4.57;1.63;;;;;;;-148.56;100.00;61375.16;4961026;28;20014;-29
2022/07/30 01:19:47;;;;;;;3.75;1.80;;;;;;;-148.56;100.00;61375.16;4958437;28;20532;-26
2022/07/30 01:21:11;;;;;;;3.60;1.80;;;;;;;-148.56;100.00;61375.16;4960763;28;20315;-25
2022/07/30 01:23:38;;;;;;;5.53;1.90;;;;;;;-148.56;100.00;61375.16;4981043;28;20029;-31
2022/07/30 01:26:06;;;;;;;4.03;1.88;;;;;;;-148.56;100.00;61375.16;4947879;28;20516;-28
2022/07/30 01:28:36;;;;;;;3.45;2.00;;;;;;;-148.56;100.00;61375.16;4932445;28;20149;-29
2022/07/30 01:31:02;;;;;;;4.28;1.65;;;;;;;-148.56;100.00;61375.16;4963789;28;20029;-31
2022/07/30 01:33:27;;;;;;;3.20;1.80;;;;;;;-148.56;100.00;61375.16;4964771;28;20040;-29
2022/07/30 01:35:53;;;;;;;3.08;1.70;;;;;;;-148.56;100.00;61375.16;4967445;28;20034;-28
2022/07/30 01:38:20;;;;;;;5.65;1.70;;;;;;;-148.56;100.00;61375.16;4960652;28;21283;-26
2022/07/30 01:40:46;;;;;;;3.90;1.90;;;;;;;-148.56;100.00;61375.16;4963906;28;20033;-25
2022/07/30 01:43:11;;;;;;;3.83;2.13;;;;;;;-148.56;100.00;61375.16;4967075;28;20037;-29
2022/07/30 01:45:37;;;;;;;3.78;1.80;;;;;;;-148.56;100.00;61375.16;4966798;28;20049;-31
2022/07/30 01:48:03;;;;;;;2.90;1.60;;;;;;;-148.56;100.00;61375.16;4945978;28;20113;-25
2022/07/30 01:50:28;;;;;;;2.72;1.70;;;;;;;-148.56;100.00;61375.16;4962459;28;20165;-30
2022/07/30 01:52:54;;;;;;;7.00;1.85;;;;;;;-148.56;100.00;61375.16;4959598;28;20853;-28
2022/07/30 01:55:24;;;;;;;3.83;1.60;;;;;;;-148.56;100.00;61375.16;4973036;28;20026;-32
2022/07/30 01:57:50;;;;;;;2.97;1.90;;;;;;;-148.56;100.00;61375.16;4963662;28;20698;-32
2022/07/30 02:00:16;;;;;;;3.08;1.73;;;;;;;-148.56;100.00;61375.16;4959421;28;20038;-24
2022/07/30 02:02:41;;;;;;;4.18;1.70;;;;;;;-148.56;100.00;61375.16;4960584;28;20022;-26
2022/07/30 02:05:07;;;;;;;2.25;1.80;;;;;;;-148.56;100.00;61375.16;4962090;28;20889;-27
2022/07/30 02:07:41;;;;;;;2.30;1.70;;;;;;;-148.56;100.00;61375.16;4946126;28;20037;-25
2022/07/30 02:10:14;;;;;;;6.18;2.03;;;;;;;-148.56;100.00;61375.16;4938724;28;20021;-26
2022/07/30 02:12:43;;;;;;;2.55;1.67;;;;;;;-148.56;100.00;61375.16;4939172;28;20045;-27
2022/07/30 02:15:25;;;;;;;4.15;1.88;;;;;;;-148.56;100.00;61375.16;4957043;28;20334;-31
2022/07/30 02:18:07;;;;;;;3.80;1.70;;;;;;;-148.56;100.00;61375.16;4968354;28;20087;-33
2022/07/30 02:20:32;;;;;;;3.80;1.90;;;;;;;-148.56;100.00;61375.16;4965981;28;21358;-27
2022/07/30 02:23:02;;;;;;;5.75;1.75;;;;;;;-148.56;100.00;61375.16;4940533;28;20049;-27
2022/07/30 02:25:27;;;;;;;3.35;1.83;;;;;;;-148.56;100.00;61375.16;4950329;28;20033;-27
2022/07/30 02:27:55;;;;;;;2.42;1.50;;;;;;;-148.56;100.00;61375.16;4958478;28;20875;-30
2022/07/30 02:30:22;;;;;;;5.25;1.58;;;;;;;-148.56;100.00;61375.16;4955870;28;20135;-27
2022/07/30 02:32:47;;;;;;;2.88;1.80;;;;;;;-148.56;100.00;61375.16;4955787;28;20056;-30
2022/07/30 02:35:19;;;;;;;2.97;1.77;;;;;;;-148.56;100.00;61375.16;4942099;28;20026;-30
2022/07/30 02:37:45;;;;;;;3.72;1.50;;;;;;;-148.56;100.00;61375.16;4957564;28;20021;-29
2022/07/30 02:40:16;;;;;;;4.82;1.75;;;;;;;-148.56;100.00;61375.16;4933806;28;20399;-29
2022/07/30 02:42:42;;;;;;;4.03;1.90;;;;;;;-148.56;100.00;61375.16;4953708;28;20022;-25
2022/07/30 02:45:08;;;;;;;2.40;1.48;;;;;;;-148.56;100.00;61375.16;4960916;28;20026;-25
2022/07/30 02:47:33;;;;;;;1.88;1.58;;;;;;;-148.56;100.00;61375.16;4956693;28;20033;-29
2022/07/30 02:49:59;;;;;;;7.20;1.90;;;;;;;-148.56;100.00;61375.16;4935664;28;21048;-31
2022/07/30 02:52:24;;;;;;;2.63;1.60;;;;;;;-148.56;100.00;61375.16;4952912;28;20110;-31
2022/07/30 02:54:50;;;;;;;3.45;1.65;;;;;;;-148.56;100.00;61375.16;4941746;28;20041;-28
2022/07/30 02:57:15;;;;;;;3.10;1.60;;;;;;;-148.56;100.00;61375.16;4943077;28;20125;-28
2022/07/30 02:59:41;;;;;;;2.90;1.85;;;;;;;-148.56;100.00;61375.16;4951607;28;20265;-26
2022/07/30 03:02:07;;;;;;;4.20;1.77;;;;;;;-148.56;100.00;61375.16;4957771;28;20107;-28
2022/07/30 03:04:32;;;;;;;1.90;1.52;;;;;;;-148.56;100.00;61375.16;4952876;28;20030;-29
2022/07/30 03:06:58;;;;;;;6.05;1.90;;;;;;;-148.56;100.00;61375.16;4952974;28;20081;-31
2022/07/30 03:09:23;;;;;;;3.13;1.88;;;;;;;-148.56;100.00;61375.16;4958405;28;22478;-27
2022/07/30 03:11:49;;;;;;;2.73;1.60;;;;;;;-148.56;100.00;61375.16;4916949;28;1214416;-25
2022/07/30 03:14:14;;;;;;;2.80;1.75;;;;;;;-148.56;100.00;61375.16;4959732;28;20299;-29
2022/07/30 03:16:41;;;;;;;2.92;1.75;;;;;;;-148.56;100.00;61375.16;4964500;28;20026;-25
2022/07/30 03:19:08;;;;;;;7.03;1.88;;;;;;;-148.56;100.00;61375.16;4952365;28;20143;-24
2022/07/30 03:21:34;;;;;;;2.40;1.67;;;;;;;-148.56;100.00;61375.16;4961361;28;20034;-27
2022/07/30 03:24:02;;;;;;;3.83;1.67;;;;;;;-148.56;100.00;61375.16;4962756;28;20032;-30
2022/07/30 03:26:27;;;;;;;2.53;1.73;;;;;;;-148.56;100.00;61375.16;4952980;28;20714;-27
2022/07/30 03:28:52;;;;;;;2.65;1.83;;;;;;;-148.56;100.00;61375.16;4960307;28;20035;-26
2022/07/30 03:31:18;;;;;;;5.25;1.80;;;;;;;-148.56;100.00;61375.16;4952902;28;20579;-27
2022/07/30 03:33:43;;;;;;;3.28;1.88;;;;;;;-148.56;100.00;61375.16;4958977;28;20052;-27
2022/07/30 03:36:09;;;;;;;4.20;1.67;;;;;;;-148.56;100.00;61375.16;4955781;28;20393;-28
2022/07/30 03:38:36;;;;;;;3.80;1.60;;;;;;;-148.56;100.00;61375.16;4962251;28;20465;-30
2022/07/30 03:41:01;;;;;;;4.97;1.90;;;;;;;-148.56;100.00;61375.16;4954311;28;20034;-30
2022/07/30 03:43:27;;;;;;;2.78;1.90;;;;;;;-148.56;100.00;61375.16;4957411;28;20040;-28
2022/07/30 03:45:52;;;;;;;2.05;1.70;;;;;;;-148.56;100.00;61375.16;4952817;28;20549;-29
2022/07/30 03:48:17;;;;;;;3.75;1.85;;;;;;;-148.56;100.00;61375.16;4952401;28;20037;-27
2022/07/30 03:50:43;;;;;;;2.88;1.50;;;;;;;-148.56;100.00;61375.16;4955369;28;20930;-26
2022/07/30 03:53:09;;;;;;;3.60;2.15;;;;;;;-148.56;100.00;61375.16;4954294;28;20353;-26
2022/07/30 03:55:35;;;;;;;2.90;1.75;;;;;;;-148.56;100.00;61375.16;4949498;28;20232;-30
2022/07/30 03:58:00;;;;;;;4.63;1.73;;;;;;;-148.56;100.00;61375.16;4957815;28;20877;-29
2022/07/30 04:00:26;;;;;;;5.55;1.92;;;;;;;-148.56;100.00;61375.16;4959871;28;20859;-29
2022/07/30 04:02:52;;;;;;;5.38;1.80;;;;;;;-148.56;100.00;61375.16;4957048;28;20038;-25
2022/07/30 04:05:17;;;;;;;2.95;1.77;;;;;;;-148.56;100.00;61375.16;4957221;28;20044;-29
2022/07/30 04:07:43;;;;;;;3.08;1.75;;;;;;;-148.56;100.00;61375.16;4957501;28;20030;-28
2022/07/30 04:10:08;;;;;;;2.55;1.70;;;;;;;-148.56;100.00;61375.16;4958644;28;20258;-29
2022/07/30 04:12:34;;;;;;;3.28;1.95;;;;;;;-148.56;100.00;61375.16;4957826;28;20025;-28
2022/07/30 04:14:59;;;;;;;4.75;1.80;;;;;;;-148.56;100.00;61375.16;4974106;28;20199;-27
2022/07/30 04:17:32;;;;;;;3.50;1.77;;;;;;;-148.56;100.00;61375.16;4962083;28;20049;-25
2022/07/30 04:20:07;;;;;;;5.68;2.10;;;;;;;-148.56;100.00;61375.16;4957868;28;20229;-28
2022/07/30 04:22:33;;;;;;;4.80;2.13;;;;;;;-148.56;100.00;61375.16;4948808;28;20310;-31
2022/07/30 04:24:59;;;;;;;5.20;2.00;;;;;;;-148.56;100.00;61375.16;4950610;28;20030;-28
2022/07/30 04:27:25;;;;;;;4.18;1.90;;;;;;;-148.56;100.00;61375.16;4934453;28;20057;-26
2022/07/30 04:29:54;;;;;;;2.85;1.75;;;;;;;-148.56;100.00;61375.16;4953282;28;20037;-26
2022/07/30 04:32:19;;;;;;;4.45;1.92;;;;;;;-148.56;100.00;61375.16;4954888;28;21271;-25
2022/07/30 04:34:48;;;;;;;3.97;1.98;;;;;;;-148.56;100.00;61375.16;4955675;28;20605;-27
2022/07/30 04:37:18;;;;;;;4.28;1.98;;;;;;;-148.56;100.00;61375.16;4957526;28;20744;-28
2022/07/30 04:39:43;;;;;;;2.50;1.80;;;;;;;-148.56;100.00;61375.16;4954524;28;20038;-28
2022/07/30 04:42:09;;;;;;;4.00;2.00;;;;;;;-148.56;100.00;61375.16;4953529;28;20034;-26
2022/07/30 04:44:34;;;;;;;6.10;2.08;;;;;;;-148.56;100.00;61375.16;4958508;28;20033;-32
2022/07/30 04:47:00;;;;;;;5.07;1.95;;;;;;;-148.56;100.00;61375.16;4951815;28;20294;-28
2022/07/30 04:49:25;;;;;;;3.67;2.25;;;;;;;-148.56;100.00;61375.16;4951424;28;20022;-30
2022/07/30 04:51:50;;;;;;;6.68;1.90;;;;;;;-148.56;100.00;61375.16;4952198;28;20041;-29
2022/07/30 04:54:16;;;;;;;4.07;2.03;;;;;;;-148.56;100.00;61375.16;4958031;28;20041;-25
2022/07/30 04:56:44;;;;;;;3.47;1.90;;;;;;;-148.56;100.00;61375.16;4931885;28;20030;-27
2022/07/30 04:59:09;;;;;;;5.25;2.38;;;;;;;-148.56;100.00;61375.16;4935205;28;20039;-29
2022/07/30 05:01:36;;;;;;;5.40;2.20;;;;;;;-148.56;100.00;61375.16;4954996;28;20034;-29
2022/07/30 05:04:01;;;;;;;4.57;2.08;;;;;;;-148.56;100.00;61375.16;4956860;28;20115;-26
2022/07/30 05:06:27;;;;;;;2.20;2.00;;;;;;;-148.56;100.00;61375.16;4951188;28;20038;-29
2022/07/30 05:08:52;;;;;;;4.93;2.42;;;;;;;-148.56;100.00;61375.16;4956459;28;20061;-30
2022/07/30 05:11:17;;;;;;;3.58;1.88;;;;;;;-148.56;100.00;61375.16;4952044;28;20044;-27
2022/07/30 05:13:43;;;;;;;5.25;2.15;;;;;;;-148.56;100.00;61375.16;4959724;28;20041;-30
2022/07/30 05:16:10;;;;;;;6.53;2.38;;;;;;;-148.56;100.00;61375.16;4956471;28;20861;-27
2022/07/30 05:18:35;;;;;;;6.85;2.20;;;;;;;-148.56;100.00;61375.16;4963090;28;20030;-27
2022/07/30 05:21:01;;;;;;;3.65;2.33;;;;;;;-148.56;100.00;61375.16;4954909;28;20133;-27
2022/07/30 05:23:26;;;;;;;4.38;1.90;;;;;;;-148.56;100.00;61375.16;4952654;28;20654;-31
2022/07/30 05:25:51;;;;;;;6.13;2.10;;;;;;;-148.56;100.00;61375.16;4953342;28;20030;-36
2022/07/30 05:28:17;;;;;;;2.65;2.10;;;;;;;-148.56;100.00;61375.16;4959493;28;20057;-30
2022/07/30 05:30:42;;;;;;;4.75;2.30;;;;;;;-148.56;100.00;61375.16;4959137;28;20030;-28
2022/07/30 05:33:07;;;;;;;6.50;2.72;;;;;;;-148.56;100.00;61375.16;4955088;28;20088;-28
2022/07/30 05:35:33;;;;;;;5.05;2.47;;;;;;;-148.56;100.00;61375.16;4957125;28;20026;-29
2022/07/30 05:37:59;;;;;;;4.63;2.45;;;;;;;-148.56;100.00;61375.16;4955525;28;21142;-30
2022/07/30 05:40:24;;;;;;;3.47;2.30;;;;;;;-148.56;100.00;61375.16;4953366;28;20387;-30
2022/07/30 05:42:50;;;;;;;5.75;2.50;;;;;;;-148.56;100.00;61375.16;4959097;28;21028;-30
2022/07/30 05:45:15;;;;;;;4.55;2.28;;;;;;;-148.56;100.00;61375.16;4956763;28;20549;-25
2022/07/30 05:47:41;;;;;;;4.22;2.40;;;;;;;-148.56;100.00;61375.16;4957439;28;20022;-31
2022/07/30 05:50:06;;;;;;;4.88;2.45;;;;;;;-148.56;100.00;61375.16;4957088;28;20821;-28
2022/07/30 05:52:32;;;;;;;6.38;2.58;;;;;;;-148.56;100.00;61375.16;4953504;28;20042;-29
2022/07/30 05:54:58;;;;;;;4.95;2.10;;;;;;;-148.56;100.00;61375.16;4935462;28;20030;-29
2022/07/30 05:57:23;;;;;;;6.07;2.28;;;;;;;-148.56;100.00;61375.16;4959197;28;20505;-29
2022/07/30 05:59:49;;;;;;;4.72;2.30;;;;;;;-148.56;100.00;61375.16;4959243;28;20022;-31
2022/07/30 06:02:14;;;;;;;4.75;2.22;;;;;;;-148.56;100.00;61375.16;4958761;28;20038;-26
2022/07/30 06:04:40;;;;;;;5.75;2.33;;;;;;;-148.56;100.00;61375.16;4954199;28;20068;-28
2022/07/30 06:07:05;;;;;;;6.68;2.78;;;;;;;-148.56;100.00;61375.16;4960824;28;20057;-30
2022/07/30 06:09:31;;;;;;;4.25;2.60;;;;;;;-148.56;100.00;61375.16;4962803;28;20047;-24
2022/07/30 06:11:56;;;;;;;4.00;2.40;;;;;;;-148.56;100.00;61375.16;4962523;28;20029;-29
2022/07/30 06:14:21;;;;;;;7.03;2.70;;;;;;;-148.56;100.00;61375.16;4959939;28;20046;-29
2022/07/30 06:16:47;;;;;;;5.40;2.78;;;;;;;-148.56;100.00;61375.16;4961873;28;21323;-29
2022/07/30 06:19:12;;;;;;;5.30;2.70;;;;;;;-148.56;100.00;61375.16;4962009;28;20581;-26
2022/07/30 06:21:38;;;;;;;6.47;2.97;;;;;;;-148.56;100.00;61375.16;4960627;28;20057;-30
2022/07/30 06:24:03;;;;;;;5.95;2.60;;;;;;;-148.56;100.00;61375.16;4958594;28;22909;-27
2022/07/30 06:26:29;;;;;;;3.83;2.55;;;;;;;-148.56;100.00;61375.16;4958088;28;20038;-27
2022/07/30 06:28:54;;;;;;;4.95;2.65;;;;;;;-148.56;100.00;61375.16;4962135;28;20046;-30
2022/07/30 06:31:19;;;;;;;2.88;2.22;;;;;;;-148.56;100.00;61375.16;4958014;28;20022;-28
2022/07/30 06:33:45;;;;;;;4.88;2.80;;;;;;;-148.56;100.00;61375.16;4960397;28;20037;-28
2022/07/30 06:36:10;;;;;;;4.38;2.67;;;;;;;-148.56;100.00;61375.16;4962355;28;21942;-28
2022/07/30 06:38:36;;;;;;;7.03;2.58;;;;;;;-148.56;100.00;61375.16;4975273;28;20285;-32
2022/07/30 06:41:01;;;;;;;6.57;3.13;;;;;;;-148.56;100.00;61375.16;4963303;28;20040;-31
2022/07/30 06:43:27;;;;;;;4.97;2.90;;;;;;;-148.56;100.00;61375.16;4961306;28;20061;-26
2022/07/30 06:45:52;;;;;;;11.35;3.22;;;;;;;-148.56;100.00;61375.16;4954298;28;20288;-26
2022/07/30 06:48:17;;;;;;;7.07;3.10;;;;;;;-148.56;100.00;61375.16;4955212;28;20030;-31
2022/07/30 06:50:43;;;;;;;7.13;3.20;;;;;;;-148.56;100.00;61375.16;4954184;28;20037;-29
2022/07/30 06:53:08;;;;;;;7.00;2.95;;;;;;;-148.56;100.00;61375.16;4957360;28;20060;-30
2022/07/30 06:55:34;;;;;;;7.00;4.03;;;;;;;-148.56;100.00;61375.16;4962753;28;20025;-24
2022/07/30 06:57:59;;;;;;;10.73;4.90;;;;;;;-148.56;100.00;61375.16;4957183;28;20045;-27
2022/07/30 07:00:24;;;;;;;8.75;4.25;;;;;;;-148.56;100.00;61375.16;4957304;28;20050;-27
2022/07/30 07:02:50;;;;;;;10.38;4.13;;;;;;;-148.56;100.00;61375.16;4961380;28;20049;-28
2022/07/30 07:05:15;;;;;;;7.38;4.25;;;;;;;-148.56;100.00;61375.16;4953285;28;21219;-28
2022/07/30 07:07:41;;;;;;;8.85;4.40;;;;;;;-148.56;100.00;61375.16;4959770;28;20697;-29
2022/07/30 07:10:07;;;;;;;9.35;4.03;;;;;;;-148.56;100.00;61375.16;4957122;28;20172;-28
2022/07/30 07:12:32;;;;;;;9.18;4.32;;;;;;;-148.56;100.00;61375.16;4961069;28;20736;-29
2022/07/30 07:14:58;;;;;;;8.10;4.35;;;;;;;-148.56;100.00;61375.16;4959542;28;20377;-31
2022/07/30 07:17:24;;;;;;;8.00;3.95;;;;;;;-148.56;100.00;61375.16;4968599;28;20084;-31
2022/07/30 07:19:49;;;;;;;7.43;3.80;;;;;;;-148.56;100.00;61375.16;4968887;28;21073;-30
2022/07/30 07:22:14;;;;;;;7.25;4.38;;;;;;;-148.56;100.00;61375.16;4963271;28;20033;-27
2022/07/30 07:24:40;;;;;;;9.73;3.40;;;;;;;-148.56;100.00;61375.16;4966355;28;20029;-27
2022/07/30 07:27:06;;;;;;;8.38;3.50;;;;;;;-148.56;100.00;61375.16;4963209;28;20052;-28
2022/07/30 07:29:31;;;;;;;8.63;3.13;;;;;;;-148.56;100.00;61375.16;4964661;28;20103;-26
2022/07/30 07:31:57;;;;;;;8.77;3.53;;;;;;;-148.56;100.00;61375.16;4963655;28;20034;-29
2022/07/30 07:34:22;;;;;;;6.78;3.35;;;;;;;-148.56;100.00;61375.16;4964719;28;20368;-26
2022/07/30 07:36:47;;;;;;;9.80;3.30;;;;;;;-148.56;100.00;61375.16;4970337;28;20045;-28
2022/07/30 07:39:13;;;;;;;8.90;3.65;;;;;;;-148.56;100.00;61375.16;4964862;28;21135;-28
2022/07/30 07:41:38;;;;;;;6.22;3.00;;;;;;;-148.56;100.00;61375.16;4961283;28;20030;-29
2022/07/30 07:44:04;;;;;;;7.80;3.10;;;;;;;-148.56;100.00;61375.16;4954279;28;20040;-27
2022/07/30 07:46:30;;;;;;;4.85;2.90;;;;;;;-148.56;100.00;61375.16;4959168;28;20062;-29
2022/07/30 07:48:55;;;;;;;7.32;3.05;;;;;;;-148.56;100.00;61375.16;4956907;28;20030;-28
2022/07/30 07:51:20;;;;;;;5.07;2.80;;;;;;;-148.56;100.00;61375.16;4965534;28;20566;-28
2022/07/30 07:53:46;;;;;;;12.20;3.05;;;;;;;-148.56;100.00;61375.16;4966771;28;20037;-24
2022/07/30 07:56:12;;;;;;;7.00;2.63;;;;;;;-148.56;100.00;61375.16;4965955;28;20060;-27
2022/07/30 07:58:38;;;;;;;6.70;2.70;;;;;;;-148.56;100.00;61375.16;4960543;28;20411;-28
2022/07/30 08:01:03;;;;;;;5.25;2.85;;;;;;;-148.56;100.00;61375.16;4960089;28;20037;-24
2022/07/30 08:03:29;;;;;;;5.45;2.35;;;;;;;-148.56;100.00;61375.16;4962198;28;20045;-25
2022/07/30 08:05:54;;;;;;;4.57;1.90;;;;;;;-148.56;100.00;61375.16;4960201;28;20030;-27
2022/07/30 08:08:20;;;;;;;8.15;2.20;;;;;;;-148.56;100.00;61375.16;4954780;28;20053;-27
2022/07/30 08:10:45;;;;;;;6.55;2.33;;;;;;;-148.56;100.00;61375.16;4965787;28;20037;-24
2022/07/30 08:13:11;;;;;;;6.75;2.45;;;;;;;-148.56;100.00;61375.16;4960405;28;20046;-28
2022/07/30 08:15:36;;;;;;;7.68;2.30;;;;;;;-148.56;100.00;61375.16;4959683;28;20682;-24
2022/07/30 08:18:02;;;;;;;7.10;2.38;;;;;;;-148.56;100.00;61375.16;4953140;28;20022;-29
2022/07/30 08:20:27;;;;;;;5.00;1.95;;;;;;;-148.56;100.00;61375.16;4959013;28;20053;-31
2022/07/30 08:22:53;;;;;;;8.20;2.40;;;;;;;-148.56;100.00;61375.16;4954529;28;20034;-26
2022/07/30 08:25:18;;;;;;;4.35;1.90;;;;;;;-148.56;100.00;61375.16;4956663;28;20026;-29
2022/07/30 08:27:44;;;;;;;6.40;2.17;;;;;;;-148.56;100.00;61375.16;4954991;28;20059;-28
2022/07/30 08:30:12;;;;;;;7.05;2.20;;;;;;;-148.56;100.00;61375.16;4964271;28;20030;-28
2022/07/30 08:32:37;;;;;;;6.32;2.20;;;;;;;-148.56;100.00;61375.16;4960911;28;20891;-27
2022/07/30 08:35:06;;;;;;;10.95;2.28;;;;;;;-148.56;100.00;61375.16;4963969;28;20044;-30
2022/07/30 08:37:31;;;;;;;7.57;2.53;;;;;;;-148.56;100.00;61375.16;4962278;28;20644;-24
2022/07/30 08:39:57;;;;;;;5.93;2.30;;;;;;;-148.56;100.00;61375.16;4966438;28;20147;-30
2022/07/30 08:42:22;;;;;;;5.38;2.17;;;;;;;-148.56;100.00;61375.16;4963951;28;20045;-28
2022/07/30 08:44:48;;;;;;;5.53;2.40;;;;;;;-148.56;100.00;61375.16;4960275;28;20029;-29
2022/07/30 08:47:16;;;;;;;7.88;2.25;;;;;;;-148.56;100.00;61375.16;4959712;28;20084;-27
2022/07/30 08:49:41;;;;;;;5.75;2.10;;;;;;;-148.56;100.00;61375.16;4957925;28;21127;-25
2022/07/30 08:52:07;;;;;;;4.13;2.30;;;;;;;-148.56;100.00;61375.16;4964886;28;20107;-29
2022/07/30 08:54:34;;;;;;;9.82;2.65;;;;;;;-148.56;100.00;61375.16;4953886;28;20060;-29
2022/07/30 08:56:59;;;;;;;6.38;1.90;;;;;;;-148.56;100.00;61375.16;4955807;28;21405;-25
2022/07/30 08:59:24;;;;;;;7.63;2.67;;;;;;;-148.56;100.00;61375.16;4958767;28;20049;-28
2022/07/30 09:01:50;;;;;;;6.78;2.63;;;;;;;-148.56;100.00;61375.16;4956792;28;21376;-31
2022/07/30 09:04:16;;;;;;;7.13;2.60;;;;;;;-148.56;100.00;61375.16;4949673;28;20022;-28
2022/07/30 09:06:42;;;;;;;5.75;2.40;;;;;;;-148.56;100.00;61375.16;4960612;28;20363;-29
2022/07/30 09:09:07;;;;;;;6.47;1.65;;;;;;;-148.56;100.00;61375.16;4956316;28;20286;-30
2022/07/30 09:11:34;;;;;;;7.97;2.13;;;;;;;-148.56;100.00;61375.16;4953875;28;20636;-27
2022/07/30 09:14:07;;;;;;;6.00;1.90;;;;;;;-148.56;100.00;61375.16;4955896;28;20067;-32
2022/07/30 09:16:32;;;;;;;8.15;2.35;;;;;;;-148.56;100.00;61375.16;4952219;28;20037;-27
2022/07/30 09:18:58;;;;;;;6.72;1.90;;;;;;;-148.56;100.00;61375.16;4957205;28;20050;-26
2022/07/30 09:21:28;;;;;;;7.85;2.00;;;;;;;-148.56;100.00;61375.16;4954918;28;20054;-28
2022/07/30 09:24:00;;;;;;;6.82;2.10;;;;;;;-148.56;100.00;61375.16;4948469;28;20025;-27
2022/07/30 09:26:26;;;;;;;7.97;2.10;;;;;;;-148.56;100.00;61375.16;4955063;28;20038;-26
2022/07/30 09:28:52;;;;;;;6.70;2.20;;;;;;;-148.56;100.00;61375.16;4959165;28;20057;-29
2022/07/30 09:31:18;;;;;;;6.55;2.28;;;;;;;-148.56;100.00;61375.16;4955290;28;20752;-29
2022/07/30 09:33:44;;;;;;;7.13;2.20;;;;;;;-148.56;100.00;61375.16;4954382;28;21049;-29
2022/07/30 09:36:11;;;;;;;5.57;2.30;;;;;;;-148.56;100.00;61375.16;4956594;28;20129;-30
2022/07/30 09:38:50;;;;;;;6.57;2.15;;;;;;;-148.56;100.00;61375.16;4960563;28;20168;-26
2022/07/30 09:41:19;;;;;;;6.45;1.98;;;;;;;-148.56;100.00;61375.16;4961977;28;20163;-29
2022/07/30 09:43:48;;;;;;;4.63;1.77;;;;;;;-148.56;100.00;61375.16;4981415;28;20038;-27
2022/07/30 09:46:14;;;;;;;10.68;2.60;;;;;;;-148.56;100.00;61375.16;4957799;28;20105;-30
2022/07/30 09:48:39;;;;;;;10.23;2.00;;;;;;;-148.56;100.00;61375.16;4956441;28;20040;-28
2022/07/30 09:51:04;;;;;;;16.05;2.22;;;;;;;-148.56;100.00;61375.16;4956211;28;20633;-25
2022/07/30 09:53:31;;;;;;;7.00;2.53;;;;;;;-148.56;100.00;61375.16;4951567;28;20914;-27
2022/07/30 09:55:57;;;;;;;10.52;2.58;;;;;;;-148.56;100.00;61375.16;4960781;28;20107;-31
2022/07/30 09:58:22;;;;;;;7.80;2.28;;;;;;;-148.56;100.00;61375.16;4954230;28;20192;-25
2022/07/30 10:00:47;;;;;;;13.27;2.30;;;;;;;-148.56;100.00;61375.16;4958739;28;20033;-32
2022/07/30 10:03:17;;;;;;;13.38;3.40;;;;;;;-148.56;100.00;61375.16;4956350;28;20542;-27
2022/07/30 10:05:56;;;;;;;23.85;3.70;;;;;;;-148.56;100.00;61375.16;4963934;28;20049;-29
2022/07/30 10:08:42;;;;;;;10.40;3.35;;;;;;;-148.56;100.00;61375.16;4960333;28;20362;-32
2022/07/30 10:11:17;;;;;;;19.65;3.50;;;;;;;-148.56;100.00;61375.16;4964019;28;20037;-27
2022/07/30 10:13:43;;;;;;;11.20;3.58;;;;;;;-148.56;100.00;61375.16;4966945;28;21178;-28
2022/07/30 10:16:09;;;;;;;13.10;3.88;;;;;;;-148.56;100.00;61375.16;4961948;28;20029;-37
2022/07/30 10:18:34;;;;;;;12.98;3.47;;;;;;;-148.56;100.00;61375.16;4964732;28;20542;-29
2022/07/30 10:21:00;;;;;;;10.50;3.60;;;;;;;-148.56;100.00;61375.16;4964080;28;20034;-31
2022/07/30 10:23:28;;;;;;;12.68;4.07;;;;;;;-148.56;100.00;61375.16;4963255;28;20028;-29
2022/07/30 10:25:58;;;;;;;9.30;3.38;;;;;;;-148.56;100.00;61375.16;4941030;28;20186;-26
2022/07/30 10:28:23;;;;;;;9.25;3.38;;;;;;;-148.56;100.00;61375.16;4962617;28;20046;-29
2022/07/30 10:30:49;;;;;;;11.00;3.33;;;;;;;-148.56;100.00;61375.16;4967988;28;20030;-25
2022/07/30 10:33:15;;;;;;;11.23;3.30;;;;;;;-148.56;100.00;61375.16;4962562;28;20107;-26
2022/07/30 10:35:40;;;;;;;9.93;3.05;;;;;;;-148.56;100.00;61375.16;4962056;28;20038;-30
2022/07/30 10:38:08;;;;;;;8.95;3.30;;;;;;;-148.56;100.00;61375.16;4958585;28;20034;-27
2022/07/30 10:40:36;;;;;;;8.32;3.03;;;;;;;-148.56;100.00;61375.16;4955224;28;20098;-28
2022/07/30 10:43:26;;;;;;;9.98;3.13;;;;;;;-148.56;100.00;61375.16;4959083;28;20049;-30
2022/07/30 10:46:13;;;;;;;9.07;3.00;;;;;;;-148.56;100.00;61375.16;4958661;28;20510;-26
2022/07/30 10:48:39;;;;;;;10.77;2.50;;;;;;;-148.56;100.00;61375.16;4943283;28;20084;-31
2022/07/30 10:51:04;;;;;;;8.35;3.10;;;;;;;-148.56;100.00;61375.16;4934258;28;21058;-28
2022/07/30 10:53:33;;;;;;;9.00;3.00;;;;;;;-148.56;100.00;61375.16;4956482;28;20196;-28
2022/07/30 10:56:12;;;;;;;6.85;2.67;;;;;;;-148.56;100.00;61375.16;4961051;28;20038;-27
2022/07/30 10:59:00;;;;;;;9.43;2.75;;;;;;;-148.56;100.00;61375.16;4966335;28;20102;-30
2022/07/30 11:01:46;;;;;;;10.02;2.85;;;;;;;-148.56;100.00;61375.16;4958503;28;20036;-34
2022/07/30 11:04:18;;;;;;;8.73;2.67;;;;;;;-148.56;100.00;61375.16;4965886;28;20173;-30
2022/07/30 11:06:43;;;;;;;7.40;2.20;;;;;;;-148.56;100.00;61375.16;4957000;28;20041;-27